createdAt,value
2022-09-26T00:00:35.802Z,98024.72
2022-09-26T00:05:50.733Z,98024.75
2022-09-26T00:08:23.633Z,98031.75
2022-09-26T00:11:00.627Z,98023.93
2022-09-26T00:13:35.461Z,98030.00
2022-09-26T00:16:10.255Z,98023.06
2022-09-26T00:18:43.664Z,98026.55
2022-09-26T00:21:17.564Z,98036.97
2022-09-26T00:23:51.094Z,98033.48
2022-09-26T00:26:25.666Z,98026.58
2022-09-26T00:28:59.496Z,98029.17
2022-09-26T00:31:34.733Z,98037.86
2022-09-26T00:34:08.170Z,98037.86
2022-09-26T00:36:41.116Z,98041.30
2022-09-26T00:39:16.744Z,98040.46
2022-09-26T00:41:50.045Z,98037.84
2022-09-26T00:44:47.086Z,98043.92
2022-09-26T00:47:39.016Z,98046.52
2022-09-26T00:50:17.779Z,98042.20
2022-09-26T00:52:55.647Z,98051.71
2022-09-26T00:55:31.377Z,98051.73
2022-09-26T00:58:07.509Z,98048.28
2022-09-26T01:00:42.592Z,98054.35
2022-09-26T01:03:17.407Z,98046.53
2022-09-26T01:05:50.662Z,98045.67
2022-09-26T01:08:26.879Z,98047.41
2022-09-26T01:11:00.903Z,98047.41
2022-09-26T01:13:36.776Z,98044.80
2022-09-26T01:16:11.374Z,98049.13
2022-09-26T01:18:45.473Z,98048.27
2022-09-26T01:21:33.912Z,98050.84
2022-09-26T01:24:18.592Z,98050.87
2022-09-26T01:27:13.424Z,98042.19
2022-09-26T01:30:11.385Z,98046.55
2022-09-26T01:36:28.830Z,98043.05
2022-09-26T01:39:10.492Z,98042.25
2022-09-26T01:41:51.504Z,98052.61
2022-09-26T01:44:31.542Z,98053.48
2022-09-26T01:47:08.852Z,98055.23
2022-09-26T01:49:46.789Z,98053.48
2022-09-26T01:52:20.360Z,98053.50
2022-09-26T01:57:40.271Z,98054.35
2022-09-26T02:00:14.804Z,98060.44
2022-09-26T02:02:49.531Z,98066.50
2022-09-26T02:05:26.298Z,98065.64
2022-09-26T02:08:02.572Z,98068.25
2022-09-26T02:10:39.469Z,98069.11
2022-09-26T02:13:17.719Z,98069.11
2022-09-26T02:15:53.646Z,98070.85
2022-09-26T02:18:30.956Z,98074.31
2022-09-26T02:21:07.188Z,98074.30
2022-09-26T02:23:41.025Z,98076.05
2022-09-26T02:26:14.029Z,98077.78
2022-09-26T02:28:49.955Z,98083.84
2022-09-26T02:31:27.207Z,98082.97
2022-09-26T02:34:00.438Z,98086.47
2022-09-26T02:36:34.735Z,98088.17
2022-09-26T02:39:08.193Z,98050.94
2022-09-26T02:41:55.456Z,98093.39
2022-09-26T02:44:37.588Z,98092.51
2022-09-26T02:47:35.209Z,98096.84
2022-09-26T02:50:25.161Z,98095.98
2022-09-26T02:53:03.025Z,98097.70
2022-09-26T02:55:41.525Z,98091.63
2022-09-26T02:58:17.823Z,98094.23
2022-09-26T03:00:56.651Z,98093.38
2022-09-26T03:03:34.337Z,98090.79
2022-09-26T03:06:10.401Z,98095.11
2022-09-26T03:08:46.489Z,98090.77
2022-09-26T03:11:23.338Z,98088.17
2022-09-26T03:13:58.769Z,98086.44
2022-09-26T03:16:35.142Z,98080.40
2022-09-26T03:19:12.474Z,98096.84
2022-09-26T03:21:45.710Z,98087.33
2022-09-26T03:24:18.734Z,98089.92
2022-09-26T03:26:53.237Z,98091.65
2022-09-26T03:29:26.933Z,98093.39
2022-09-26T03:32:00.722Z,98104.64
2022-09-26T03:34:33.792Z,98102.92
2022-09-26T03:37:06.915Z,98099.43
2022-09-26T03:39:39.867Z,98108.11
2022-09-26T03:42:16.780Z,98108.10
2022-09-26T03:44:52.015Z,98108.98
2022-09-26T03:47:26.766Z,98110.69
2022-09-26T03:50:01.193Z,98116.78
2022-09-26T03:52:34.206Z,98114.17
2022-09-26T03:55:08.251Z,98117.64
2022-09-26T03:57:41.735Z,98108.95
2022-09-26T04:00:17.888Z,98115.05
2022-09-26T04:02:51.269Z,98110.70
2022-09-26T04:05:31.868Z,98108.98
2022-09-26T04:08:06.848Z,98117.63
2022-09-26T04:10:40.519Z,98117.64
2022-09-26T04:13:33.649Z,98116.78
2022-09-26T04:15:56.867Z,98117.63
2022-09-26T04:18:31.254Z,98115.89
2022-09-26T04:21:10.156Z,98114.17
2022-09-26T04:23:44.702Z,98117.63
2022-09-26T04:26:23.392Z,98128.89
2022-09-26T04:28:56.621Z,98128.91
2022-09-26T04:31:32.469Z,98123.70
2022-09-26T04:34:07.952Z,98122.84
2022-09-26T04:36:41.803Z,98126.28
2022-09-26T04:39:15.212Z,98124.55
2022-09-26T04:41:48.407Z,98128.02
2022-09-26T04:44:21.364Z,98128.02
2022-09-26T04:46:54.502Z,98128.89
2022-09-26T04:49:29.307Z,98119.34
2022-09-26T04:52:02.409Z,98122.82
2022-09-26T04:54:37.319Z,98134.94
2022-09-26T04:57:10.761Z,98133.20
2022-09-26T04:59:43.731Z,98134.95
2022-09-26T05:02:17.354Z,98134.07
2022-09-26T05:04:51.323Z,98135.83
2022-09-26T05:07:25.541Z,98134.94
2022-09-26T05:09:58.483Z,98141.01
2022-09-26T05:12:35.512Z,98143.59
2022-09-26T05:15:11.753Z,98136.67
2022-09-26T05:17:48.289Z,98142.75
2022-09-26T05:20:23.154Z,98136.66
2022-09-26T05:22:59.472Z,98148.80
2022-09-26T05:25:52.082Z,98147.03
2022-09-26T05:28:25.310Z,98141.84
2022-09-26T05:30:59.518Z,98145.30
2022-09-26T05:33:32.882Z,98147.02
2022-09-26T05:36:08.030Z,98140.08
2022-09-26T05:38:41.084Z,98148.73
2022-09-26T05:41:16.371Z,98152.19
2022-09-26T05:43:49.995Z,98152.17
2022-09-26T05:46:23.234Z,98153.91
2022-09-26T05:48:57.868Z,98146.11
2022-09-26T05:51:34.392Z,98150.45
2022-09-26T05:54:08.384Z,98153.91
2022-09-26T05:56:41.852Z,98153.05
2022-09-26T05:59:32.681Z,98157.38
2022-09-26T06:02:18.478Z,98159.13
2022-09-26T06:04:50.434Z,98157.38
2022-09-26T06:07:24.943Z,98167.77
2022-09-26T06:09:57.783Z,98168.65
2022-09-26T06:12:38.388Z,98167.77
2022-09-26T06:15:12.368Z,98173.87
2022-09-26T06:17:47.164Z,98172.11
2022-09-26T06:20:20.894Z,98171.22
2022-09-26T06:22:54.939Z,98172.08
2022-09-26T06:25:29.357Z,98174.63
2022-09-26T06:28:04.353Z,98176.31
2022-09-26T06:30:37.527Z,98176.31
2022-09-26T06:33:32.552Z,98176.32
2022-09-26T06:36:09.161Z,98182.41
2022-09-26T06:38:42.721Z,98180.63
2022-09-26T06:41:17.936Z,98181.42
2022-09-26T06:43:50.931Z,98186.66
2022-09-26T06:46:25.672Z,98180.55
2022-09-26T06:49:00.422Z,98181.40
2022-09-26T06:51:36.715Z,98190.09
2022-09-26T06:54:10.382Z,98190.02
2022-09-26T06:56:43.231Z,98189.94
2022-09-26T06:59:17.187Z,98193.31
2022-09-26T07:01:52.017Z,98201.97
2022-09-26T07:04:42.641Z,98195.05
2022-09-26T07:07:19.966Z,98202.07
2022-09-26T07:09:52.924Z,98193.38
2022-09-26T07:12:48.501Z,98207.25
2022-09-26T07:15:22.393Z,98211.66
2022-09-26T07:17:57.475Z,98210.77
2022-09-26T07:20:41.172Z,98217.68
2022-09-26T07:23:16.553Z,98216.78
2022-09-26T07:25:50.965Z,98215.89
2022-09-26T07:31:07.833Z,98210.63
2022-09-26T07:33:48.608Z,98220.29
2022-09-26T07:36:25.755Z,98229.84
2022-09-26T07:39:01.413Z,98233.30
2022-09-26T07:41:34.367Z,98234.09
2022-09-26T07:46:59.682Z,98230.53
2022-09-26T07:49:53.426Z,98234.94
2022-09-26T07:55:25.730Z,98233.20
2022-09-26T07:58:09.315Z,98240.17
2022-09-26T08:00:44.708Z,98250.48
2022-09-26T08:03:26.383Z,98250.33
2022-09-26T08:06:02.221Z,98238.06
2022-09-26T08:08:36.064Z,98245.02
2022-09-26T08:11:16.940Z,98252.86
2022-09-26T08:13:51.959Z,98252.03
2022-09-26T08:19:24.554Z,98248.63
2022-09-26T08:21:59.164Z,98249.52
2022-09-26T08:24:32.288Z,98245.00
2022-09-26T08:30:03.844Z,98243.61
2022-09-26T08:32:37.306Z,98244.58
2022-09-26T08:35:12.352Z,98224.56
2022-09-26T08:38:03.621Z,98238.35
2022-09-26T08:40:54.767Z,98250.41
2022-09-26T08:43:59.335Z,98255.42
2022-09-26T08:46:55.716Z,98254.34
2022-09-26T08:50:06.501Z,98258.52
2022-09-26T08:52:43.032Z,98256.03
2022-09-26T08:55:19.370Z,98250.97
2022-09-26T08:58:00.380Z,98255.37
2022-09-26T09:00:38.817Z,98261.50
2022-09-26T09:03:20.867Z,98276.11
2022-09-26T09:05:56.881Z,98271.50
2022-09-26T09:08:35.610Z,98273.95
2022-09-26T09:11:34.987Z,98274.73
2022-09-26T09:14:14.440Z,98287.66
2022-09-26T09:17:13.962Z,98271.16
2022-09-26T09:20:03.609Z,98284.58
2022-09-26T09:22:48.535Z,98284.52
2022-09-26T09:25:30.207Z,98289.00
2022-09-26T09:28:23.132Z,98289.92
2022-09-26T09:31:01.049Z,98294.42
2022-09-26T09:33:41.583Z,98296.43
2022-09-26T09:36:34.907Z,98306.27
2022-09-26T09:39:30.767Z,98309.18
2022-09-26T09:42:13.735Z,98318.91
2022-09-26T09:44:50.724Z,98320.73
2022-09-26T09:47:29.132Z,98321.66
2022-09-26T09:50:03.278Z,98318.16
2022-09-26T09:52:51.290Z,98319.78
2022-09-26T09:55:35.117Z,98322.28
2022-09-26T09:58:47.037Z,98314.22
2022-09-26T10:01:27.526Z,98317.34
2022-09-26T10:04:06.313Z,98317.91
2022-09-26T10:06:46.382Z,98316.91
2022-09-26T10:09:38.645Z,98318.00
2022-09-26T10:12:19.164Z,98319.82
2022-09-26T10:20:46.879Z,98326.95
2022-09-26T10:23:21.296Z,98319.88
2022-09-26T10:25:58.725Z,98328.41
2022-09-26T10:28:35.826Z,98318.09
2022-09-26T10:31:12.028Z,98301.73
2022-09-26T10:33:53.446Z,98330.50
2022-09-26T10:36:33.342Z,98328.81
2022-09-26T10:39:26.763Z,98327.88
2022-09-26T10:42:02.113Z,98323.29
2022-09-26T10:44:37.077Z,98325.63
2022-09-26T10:47:18.474Z,98322.66
2022-09-26T10:49:56.047Z,98328.43
2022-09-26T10:52:50.386Z,98325.78
2022-09-26T10:55:26.957Z,98326.78
2022-09-26T10:58:02.247Z,98335.66
2022-09-26T11:00:41.543Z,98330.73
2022-09-26T11:03:21.556Z,98334.56
2022-09-26T11:06:02.550Z,98343.55
2022-09-26T11:08:39.847Z,98344.55
2022-09-26T11:11:22.643Z,98351.62
2022-09-26T11:14:07.191Z,98348.20
2022-09-26T11:16:52.973Z,98356.08
2022-09-26T11:19:32.641Z,98355.15
2022-09-26T11:22:12.147Z,98349.64
2022-09-26T11:24:50.252Z,98344.94
2022-09-26T11:27:31.670Z,98352.37
2022-09-26T11:30:14.442Z,98346.05
2022-09-26T11:32:54.553Z,98351.03
2022-09-26T11:35:50.329Z,98355.02
2022-09-26T11:38:40.831Z,98360.00
2022-09-26T11:44:54.598Z,98349.47
2022-09-26T11:48:00.430Z,98351.36
2022-09-26T11:50:52.047Z,98352.55
2022-09-26T11:53:44.354Z,98357.15
2022-09-26T11:59:31.640Z,98368.09
2022-09-26T12:02:15.279Z,98372.95
2022-09-26T12:05:03.198Z,98376.08
2022-09-26T12:07:37.494Z,98385.31
2022-09-26T12:10:21.621Z,98379.61
2022-09-26T12:13:03.373Z,98382.75
2022-09-26T12:15:40.330Z,98382.16
2022-09-26T12:18:17.077Z,98389.36
2022-09-26T12:20:56.289Z,98395.50
2022-09-26T12:23:32.380Z,98392.97
2022-09-26T12:26:14.556Z,98394.59
2022-09-26T12:29:05.354Z,98395.48
2022-09-26T12:31:50.830Z,98387.74
2022-09-26T12:34:33.163Z,98391.31
2022-09-26T12:37:13.257Z,98385.26
2022-09-26T12:40:09.442Z,98395.73
2022-09-26T12:42:56.178Z,98399.19
2022-09-26T12:45:52.378Z,98396.48
2022-09-26T12:48:32.309Z,98402.55
2022-09-26T12:51:11.029Z,98402.63
2022-09-26T12:53:52.184Z,98408.83
2022-09-26T12:59:17.056Z,98398.52
2022-09-26T13:02:04.651Z,98404.88
2022-09-26T13:05:02.562Z,98414.52
2022-09-26T13:07:47.207Z,98411.05
2022-09-26T13:10:29.465Z,98415.45
2022-09-26T13:13:23.289Z,98417.20
2022-09-26T13:16:06.789Z,98417.20
2022-09-26T13:18:45.597Z,98419.81
2022-09-26T13:21:24.562Z,98424.17
2022-09-26T13:24:01.299Z,98424.99
2022-09-26T13:26:37.193Z,98426.73
2022-09-26T13:29:17.566Z,98411.98
2022-09-26T13:31:56.286Z,98427.59
2022-09-26T13:34:33.555Z,98426.70
2022-09-26T13:37:10.074Z,98434.55
2022-09-26T13:39:46.620Z,98431.03
